Time;durP1;ratioP1;P1;durP2;ratioP2;P2;SDS_P1;SDS_P2;PMS_P1;PMS_P2;Temp;Humidity;BMP_temperature;BMP_pressure;BME280_temperature;BME280_humidity;BME280_pressure;Samples;Min_cycle;Max_cycle;Signal;HPM_P1;HPM_P2
2021/01/28 00:01:25;;;;;;;7.90;5.50;;;;;;;1.22;85.73;95415.34;4968997;28;20105;-46
2021/01/28 00:03:52;;;;;;;7.43;5.38;;;;;;;1.24;85.89;95419.34;4972735;28;20137;-48
2021/01/28 00:06:18;;;;;;;8.23;5.68;;;;;;;1.51;84.65;95420.59;4974901;28;20524;-47
2021/01/28 00:08:44;;;;;;;6.55;5.10;;;;;;;1.20;85.79;95412.97;4973882;28;20062;-46
2021/01/28 00:11:11;;;;;;;7.47;5.20;;;;;;;1.08;86.50;95402.72;4959807;28;20079;-47
2021/01/28 00:13:38;;;;;;;7.50;5.30;;;;;;;1.31;85.80;95408.31;4969185;28;20054;-45
2021/01/28 00:16:05;;;;;;;8.32;5.35;;;;;;;1.28;85.37;95403.56;4974336;28;20129;-49
2021/01/28 00:18:31;;;;;;;8.07;5.65;;;;;;;1.27;85.64;95409.94;4973635;28;20057;-44
2021/01/28 00:20:58;;;;;;;7.53;5.35;;;;;;;1.15;85.99;95413.03;4970905;28;20051;-46
2021/01/28 00:23:24;;;;;;;7.80;5.40;;;;;;;1.43;84.77;95421.22;4973993;28;20058;-48
2021/01/28 00:25:51;;;;;;;7.95;5.25;;;;;;;1.10;86.15;95413.09;4974427;28;20046;-46
2021/01/28 00:28:20;;;;;;;7.22;5.15;;;;;;;1.30;85.53;95412.03;4973909;28;20051;-44
2021/01/28 00:30:50;;;;;;;8.52;5.72;;;;;;;1.45;84.51;95405.75;4957084;28;20066;-49
2021/01/28 00:33:20;;;;;;;8.13;5.38;;;;;;;1.22;85.85;95404.69;4953912;28;20122;-44
2021/01/28 00:35:49;;;;;;;8.07;5.25;;;;;;;1.13;85.94;95396.53;4954331;28;20054;-48
2021/01/28 00:38:30;;;;;;;7.10;4.95;;;;;;;1.20;85.62;95390.84;4968802;28;20087;-44
2021/01/28 00:40:58;;;;;;;6.85;4.97;;;;;;;1.08;86.21;95400.06;4954400;28;20130;-44
2021/01/28 00:43:25;;;;;;;8.07;5.70;;;;;;;1.40;84.90;95404.72;4953396;29;20146;-43
2021/01/28 00:45:51;;;;;;;8.35;5.28;;;;;;;1.13;86.08;95412.53;4959843;28;20139;-46
2021/01/28 00:48:19;;;;;;;7.75;5.05;;;;;;;1.31;85.55;95395.00;4954309;28;20063;-43
2021/01/28 00:50:47;;;;;;;7.78;5.35;;;;;;;1.37;84.67;95391.97;4962728;28;20480;-44
2021/01/28 00:53:15;;;;;;;8.27;5.32;;;;;;;1.62;83.84;95390.03;4973484;28;20050;-46
2021/01/28 00:55:43;;;;;;;6.88;5.07;;;;;;;1.63;84.02;95387.09;4972442;28;20058;-47
2021/01/28 00:58:23;;;;;;;7.47;5.25;;;;;;;1.82;83.14;95392.44;4972298;28;20054;-49
2021/01/28 01:00:50;;;;;;;7.88;5.13;;;;;;;1.39;84.73;95386.34;4969980;28;20055;-45
2021/01/28 01:03:19;;;;;;;6.68;4.88;;;;;;;1.26;85.44;95387.84;4972183;28;20457;-46
2021/01/28 01:05:48;;;;;;;6.72;4.57;;;;;;;1.29;85.08;95375.81;4972847;28;20121;-44
2021/01/28 01:08:26;;;;;;;7.35;5.38;;;;;;;1.42;84.73;95383.09;4958984;28;20464;-43
2021/01/28 01:10:57;;;;;;;6.85;5.07;;;;;;;1.35;85.32;95382.69;4972073;28;20074;-43
2021/01/28 01:13:26;;;;;;;7.03;5.00;;;;;;;1.81;83.09;95388.16;4973229;28;20444;-45
2021/01/28 01:16:04;;;;;;;7.95;5.55;;;;;;;1.64;83.57;95380.66;4968476;28;20074;-46
2021/01/28 01:18:33;;;;;;;7.55;5.20;;;;;;;1.46;84.78;95372.66;4952683;28;20055;-49
2021/01/28 01:21:01;;;;;;;6.85;4.95;;;;;;;1.94;82.62;95391.97;4952809;28;20054;-48
2021/01/28 01:23:28;;;;;;;7.90;5.60;;;;;;;2.04;81.91;95383.00;4952660;29;20061;-47
2021/01/28 01:26:04;;;;;;;6.65;4.82;;;;;;;1.34;85.16;95389.09;4952643;29;20508;-47
2021/01/28 01:28:31;;;;;;;7.55;4.97;;;;;;;1.37;85.34;95399.19;4953826;28;20059;-45
2021/01/28 01:31:03;;;;;;;7.50;5.15;;;;;;;1.54;84.77;95396.81;4970745;28;20063;-46
2021/01/28 01:33:32;;;;;;;7.25;4.65;;;;;;;1.69;83.92;95395.00;4972456;28;20062;-46
2021/01/28 01:36:04;;;;;;;5.95;3.88;;;;;;;1.41;85.01;95394.88;4971893;28;20412;-48
2021/01/28 01:38:35;;;;;;;7.07;4.70;;;;;;;1.35;85.29;95388.00;4969774;28;20130;-44
2021/01/28 01:41:01;;;;;;;6.80;4.57;;;;;;;1.56;84.52;95384.00;4972492;28;20416;-47
2021/01/28 01:43:28;;;;;;;6.53;4.53;;;;;;;1.28;85.60;95392.91;4970445;28;20054;-46
2021/01/28 01:46:08;;;;;;;6.55;4.47;;;;;;;1.46;85.18;95384.13;4971595;28;20452;-47
2021/01/28 01:48:44;;;;;;;6.75;4.53;;;;;;;1.58;84.29;95387.16;4957115;28;20425;-47
2021/01/28 01:51:14;;;;;;;7.00;4.53;;;;;;;2.15;81.96;95376.44;4964153;28;20047;-48
2021/01/28 01:53:46;;;;;;;6.57;4.50;;;;;;;1.94;82.90;95378.63;4972107;28;20061;-47
2021/01/28 01:56:24;;;;;;;6.85;4.50;;;;;;;1.50;84.36;95374.47;4970994;28;20078;-49
2021/01/28 01:59:06;;;;;;;5.97;4.18;;;;;;;1.52;84.91;95374.97;4966560;28;20153;-47
2021/01/28 02:02:01;;;;;;;7.00;4.88;;;;;;;1.84;83.39;95378.78;4953260;28;20050;-47
2021/01/28 02:04:50;;;;;;;7.57;5.22;;;;;;;1.61;84.46;95375.13;4961355;28;20043;-46
2021/01/28 02:07:40;;;;;;;6.93;4.38;;;;;;;1.62;84.13;95377.50;4975082;28;20133;-47
2021/01/28 02:10:25;;;;;;;5.82;4.00;;;;;;;1.52;84.62;95372.31;4971478;28;20050;-46
2021/01/28 02:13:10;;;;;;;7.10;4.50;;;;;;;1.69;84.12;95371.00;4972705;28;20074;-49
2021/01/28 02:15:44;;;;;;;6.72;4.68;;;;;;;2.03;82.82;95360.88;4970026;28;20042;-46
2021/01/28 02:18:11;;;;;;;5.75;4.07;;;;;;;1.72;83.68;95357.88;4971005;28;20055;-44
2021/01/28 02:21:19;;;;;;;5.20;3.63;;;;;;;1.50;85.17;95355.03;4966180;28;20130;-46
2021/01/28 02:23:58;;;;;;;6.47;4.25;;;;;;;1.55;84.80;95357.59;4946438;29;20139;-50
2021/01/28 02:26:29;;;;;;;6.35;4.30;;;;;;;1.30;85.34;95324.91;4960163;28;20110;-46
2021/01/28 02:29:10;;;;;;;6.18;3.95;;;;;;;1.67;84.90;95355.31;4951532;29;20058;-46
2021/01/28 02:31:40;;;;;;;6.13;4.03;;;;;;;1.51;85.56;95353.94;4957899;28;20049;-46
2021/01/28 02:34:08;;;;;;;6.10;4.10;;;;;;;1.57;85.14;95348.25;4953933;28;20441;-45
2021/01/28 02:36:48;;;;;;;5.53;3.70;;;;;;;1.68;84.91;95345.44;4951906;28;20061;-44
2021/01/28 02:39:33;;;;;;;5.85;3.67;;;;;;;1.57;85.27;95345.59;4954961;28;20083;-47
2021/01/28 02:42:29;;;;;;;6.50;4.10;;;;;;;1.72;84.98;95349.09;4971159;28;20043;-46
2021/01/28 02:45:05;;;;;;;6.97;4.22;;;;;;;2.03;83.55;95344.09;4957713;28;20469;-45
2021/01/28 02:48:06;;;;;;;6.93;4.43;;;;;;;2.13;82.89;95343.91;4952707;29;20055;-45
2021/01/28 02:50:46;;;;;;;5.82;3.85;;;;;;;2.07;82.81;95337.06;4962221;28;20242;-45
2021/01/28 02:53:15;;;;;;;5.63;3.88;;;;;;;2.24;82.14;95344.53;4970501;28;20051;-48
2021/01/28 02:55:46;;;;;;;5.07;3.42;;;;;;;1.85;84.06;95338.50;4972665;28;20059;-47
2021/01/28 02:58:12;;;;;;;6.22;4.22;;;;;;;1.66;84.69;95345.72;4958068;28;20055;-45
2021/01/28 03:00:50;;;;;;;5.72;3.78;;;;;;;1.89;83.72;95340.59;4971454;28;20051;-43
2021/01/28 03:03:17;;;;;;;5.72;3.88;;;;;;;2.06;83.38;95338.94;4971388;28;20468;-44
2021/01/28 03:05:48;;;;;;;5.97;4.22;;;;;;;2.41;81.41;95333.31;4962058;28;20043;-47
2021/01/28 03:08:17;;;;;;;6.03;4.30;;;;;;;2.24;82.34;95315.16;4954574;29;20051;-47
2021/01/28 03:10:45;;;;;;;5.70;3.90;;;;;;;2.21;82.35;95318.41;4960669;28;20520;-44
2021/01/28 03:13:23;;;;;;;5.50;3.70;;;;;;;1.96;83.50;95315.09;4975649;28;20089;-42
2021/01/28 03:16:00;;;;;;;6.50;3.70;;;;;;;1.69;84.69;95307.81;4965251;28;20051;-44
2021/01/28 03:18:28;;;;;;;5.35;3.78;;;;;;;1.84;84.08;95307.56;4971072;28;20051;-44
2021/01/28 03:21:00;;;;;;;7.20;3.72;;;;;;;2.16;82.77;95307.84;4983069;28;20055;-42
2021/01/28 03:23:58;;;;;;;5.85;3.88;;;;;;;2.26;82.22;95303.09;4973969;28;20062;-49
2021/01/28 03:26:47;;;;;;;5.22;3.60;;;;;;;1.86;83.83;95294.72;4975761;28;20066;-43
2021/01/28 03:29:14;;;;;;;5.63;3.78;;;;;;;2.05;83.11;95301.91;4973876;28;20075;-43
2021/01/28 03:31:41;;;;;;;5.28;3.50;;;;;;;2.22;82.90;95304.00;4974226;28;20053;-47
2021/01/28 03:34:13;;;;;;;5.07;3.38;;;;;;;2.00;83.66;95293.97;4973892;28;20054;-45
2021/01/28 03:36:41;;;;;;;5.55;3.90;;;;;;;2.24;82.27;95288.47;4974554;28;20047;-42
2021/01/28 03:39:11;;;;;;;4.97;3.38;;;;;;;2.20;82.35;95300.81;4972456;28;20101;-44
2021/01/28 03:41:38;;;;;;;4.57;3.22;;;;;;;2.02;83.23;95295.25;4974996;28;20068;-45
2021/01/28 03:44:04;;;;;;;5.47;3.65;;;;;;;2.17;82.79;95302.19;4973826;28;20436;-44
2021/01/28 03:46:31;;;;;;;5.13;3.55;;;;;;;2.10;83.23;95291.13;4971895;28;20134;-47
2021/01/28 03:48:59;;;;;;;4.68;3.15;;;;;;;2.02;83.33;95292.59;4964975;28;20047;-45
2021/01/28 03:51:31;;;;;;;4.10;3.07;;;;;;;1.81;84.25;95294.81;4970528;28;20075;-44
2021/01/28 03:54:16;;;;;;;4.53;3.13;;;;;;;1.68;85.18;95292.09;4969053;28;20051;-47
2021/01/28 03:56:47;;;;;;;4.45;3.20;;;;;;;1.51;85.83;95274.75;4973238;28;20047;-44
2021/01/28 03:59:14;;;;;;;4.32;2.80;;;;;;;1.54;85.92;95273.38;4962845;28;20057;-46
2021/01/28 04:02:08;;;;;;;4.28;2.92;;;;;;;1.39;86.53;95267.19;4961428;28;20054;-44
2021/01/28 04:04:53;;;;;;;4.55;2.90;;;;;;;1.75;84.92;95266.63;4975319;28;20059;-48
2021/01/28 04:07:40;;;;;;;4.68;3.10;;;;;;;1.90;84.85;95264.81;4971670;28;20389;-44
2021/01/28 04:10:10;;;;;;;5.43;2.75;;;;;;;1.59;85.90;95262.63;4972863;28;20058;-43
2021/01/28 04:12:46;;;;;;;4.28;2.72;;;;;;;1.62;86.04;95254.84;4958046;28;20051;-43
2021/01/28 04:15:42;;;;;;;3.83;2.65;;;;;;;1.63;85.90;95245.78;4972701;28;20043;-44
2021/01/28 04:18:09;;;;;;;4.68;2.90;;;;;;;1.51;86.50;95248.09;4973329;28;20050;-45
2021/01/28 04:20:43;;;;;;;4.70;3.08;;;;;;;1.67;86.16;95245.19;4972000;28;20050;-46
2021/01/28 04:23:14;;;;;;;4.75;2.75;;;;;;;1.54;86.27;95226.19;4972210;28;20063;-43
2021/01/28 04:26:07;;;;;;;4.57;3.22;;;;;;;1.58;86.55;95235.19;4974042;28;20065;-46
2021/01/28 04:28:37;;;;;;;4.22;2.90;;;;;;;1.62;86.60;95235.38;4972413;28;20061;-46
2021/01/28 04:31:24;;;;;;;4.47;2.78;;;;;;;1.57;86.34;95224.81;4961277;28;20047;-43
2021/01/28 04:33:53;;;;;;;4.75;3.20;;;;;;;1.60;86.75;95232.22;4972677;28;20051;-44
2021/01/28 04:36:25;;;;;;;4.07;2.58;;;;;;;1.70;86.36;95232.06;4971957;28;20110;-45
2021/01/28 04:39:16;;;;;;;4.75;3.00;;;;;;;1.60;86.86;95224.22;4953828;28;20465;-47
2021/01/28 04:41:44;;;;;;;4.63;2.80;;;;;;;1.81;85.85;95216.66;4962757;28;20042;-47
2021/01/28 04:44:12;;;;;;;4.68;3.20;;;;;;;1.59;86.72;95217.28;4973546;28;20043;-44
2021/01/28 04:46:50;;;;;;;5.72;3.15;;;;;;;1.70;86.62;95215.28;4972347;28;20468;-45
2021/01/28 04:49:35;;;;;;;5.13;3.25;;;;;;;1.64;86.81;95199.34;4954274;28;20070;-43
2021/01/28 04:52:22;;;;;;;6.47;3.47;;;;;;;1.67;86.82;95194.53;4954253;28;20075;-47
2021/01/28 04:55:13;;;;;;;4.55;3.13;;;;;;;1.69;86.69;95187.00;4960193;28;20055;-45
2021/01/28 04:57:45;;;;;;;4.82;3.20;;;;;;;1.74;86.73;95178.94;4960451;28;20047;-44
2021/01/28 05:00:15;;;;;;;5.65;3.30;;;;;;;1.64;87.30;95162.00;4966246;28;20051;-45
2021/01/28 05:03:14;;;;;;;4.32;2.67;;;;;;;1.55;88.08;95165.66;4971461;28;20650;-45
2021/01/28 05:05:53;;;;;;;4.65;3.20;;;;;;;1.66;87.86;95153.75;4972324;28;20061;-44
2021/01/28 05:08:28;;;;;;;4.82;3.30;;;;;;;1.74;87.31;95146.94;4964824;28;20043;-46
2021/01/28 05:11:26;;;;;;;6.32;3.78;;;;;;;1.85;86.98;95141.13;4952744;28;20065;-49
2021/01/28 05:14:19;;;;;;;4.70;3.05;;;;;;;1.64;87.96;95134.56;4953973;28;20058;-47
2021/01/28 05:17:05;;;;;;;4.78;3.30;;;;;;;1.66;87.63;95121.75;4958383;28;20105;-48
2021/01/28 05:20:19;;;;;;;4.90;3.05;;;;;;;1.78;87.61;95114.03;4963502;28;20464;-45
2021/01/28 05:23:23;;;;;;;4.25;3.05;;;;;;;1.61;88.35;95119.16;4968604;28;20062;-50
2021/01/28 05:25:49;;;;;;;7.53;3.30;;;;;;;1.62;88.57;95115.41;4973247;28;20094;-45
2021/01/28 05:28:41;;;;;;;4.53;3.00;;;;;;;1.75;88.13;95103.16;4957326;28;20130;-47
2021/01/28 05:31:34;;;;;;;5.57;3.10;;;;;;;1.87;87.45;95095.47;4961216;28;20147;-46
2021/01/28 05:34:34;;;;;;;4.78;3.10;;;;;;;1.87;87.54;95101.56;4970377;28;20050;-50
2021/01/28 05:37:18;;;;;;;4.15;2.58;;;;;;;1.97;87.48;95091.78;4967326;28;20054;-46
2021/01/28 05:40:21;;;;;;;7.18;3.05;;;;;;;1.88;87.19;95081.03;4972251;28;20059;-50
2021/01/28 05:43:28;;;;;;;4.63;2.90;;;;;;;2.02;87.44;95092.50;4971837;28;20389;-46
2021/01/28 05:46:22;;;;;;;4.28;2.85;;;;;;;2.06;87.01;95093.47;4959521;28;20051;-46
2021/01/28 05:49:17;;;;;;;4.13;2.70;;;;;;;1.92;88.10;95092.69;4960172;28;20138;-50
2021/01/28 05:51:51;;;;;;;5.07;2.53;;;;;;;2.12;86.99;95077.38;4966783;28;20057;-45
2021/01/28 05:55:03;;;;;;;3.20;2.22;;;;;;;2.09;87.25;95070.75;4970289;28;20054;-46
2021/01/28 05:57:57;;;;;;;3.13;2.17;;;;;;;2.07;87.57;95073.69;4963739;28;20126;-47
2021/01/28 06:00:50;;;;;;;4.00;2.53;;;;;;;1.94;87.94;95057.72;4965827;28;20069;-48
2021/01/28 06:03:39;;;;;;;3.70;2.42;;;;;;;2.13;87.39;95062.94;4969261;28;20053;-46
2021/01/28 06:06:48;;;;;;;6.57;2.63;;;;;;;2.18;86.91;95060.13;4972195;28;20121;-46
2021/01/28 06:10:05;;;;;;;3.47;2.17;;;;;;;2.03;87.91;95056.72;4953323;29;20043;-46
2021/01/28 06:13:16;;;;;;;4.10;2.63;;;;;;;2.00;88.01;95067.97;4960370;28;20051;-48
2021/01/28 06:16:00;;;;;;;3.30;2.45;;;;;;;2.31;86.91;95078.03;4970736;28;20161;-48
2021/01/28 06:18:52;;;;;;;4.60;2.75;;;;;;;2.25;86.90;95077.34;4970644;28;20051;-46
2021/01/28 06:21:57;;;;;;;4.40;2.75;;;;;;;2.19;87.20;95061.72;4950903;29;20110;-48
2021/01/28 06:25:05;;;;;;;4.15;2.70;;;;;;;2.10;87.85;95059.75;4963689;28;20054;-46
2021/01/28 06:28:05;;;;;;;5.35;3.08;;;;;;;2.48;86.70;95056.81;4967617;28;20370;-44
2021/01/28 06:30:36;;;;;;;5.30;3.45;;;;;;;2.25;87.47;95050.66;4958623;28;20047;-45
2021/01/28 06:33:28;;;;;;;5.35;3.40;;;;;;;2.24;87.77;95045.59;4975120;28;20053;-47
2021/01/28 06:36:45;;;;;;;5.20;3.65;;;;;;;2.34;87.18;95034.72;4975483;28;20483;-48
2021/01/28 06:39:42;;;;;;;5.53;3.33;;;;;;;2.21;87.50;95024.84;4971355;28;20051;-50
2021/01/28 06:42:49;;;;;;;4.38;3.28;;;;;;;2.49;87.15;95034.34;4969726;28;20046;-46
2021/01/28 06:45:39;;;;;;;4.65;3.38;;;;;;;2.25;87.55;95026.63;4969108;28;20059;-48
2021/01/28 06:48:19;;;;;;;5.15;3.50;;;;;;;2.16;88.13;95032.97;4974240;28;20050;-45
2021/01/28 06:51:31;;;;;;;5.55;3.40;;;;;;;2.21;88.11;95027.50;4960787;28;20438;-50
2021/01/28 06:54:21;;;;;;;7.47;3.33;;;;;;;2.23;87.76;95018.13;4974719;28;20081;-48
2021/01/28 06:57:25;;;;;;;5.80;4.07;;;;;;;2.21;87.86;95014.97;4972693;28;20143;-47
2021/01/28 07:00:19;;;;;;;5.95;3.22;;;;;;;2.26;88.38;95022.06;4968009;28;20048;-48
2021/01/28 07:02:56;;;;;;;7.00;2.78;;;;;;;2.10;88.55;95017.06;4966533;28;20394;-47
2021/01/28 07:06:10;;;;;;;7.78;3.78;;;;;;;2.18;88.29;95020.09;4974272;28;20153;-51
2021/01/28 07:09:07;;;;;;;6.78;3.55;;;;;;;2.32;88.18;95008.31;4972584;28;20042;-51
2021/01/28 07:11:44;;;;;;;6.45;5.40;;;;;;;2.44;87.65;95014.97;4954916;29;20051;-46
2021/01/28 07:14:19;;;;;;;5.97;3.42;;;;;;;2.36;88.22;94999.69;4973267;28;20539;-47
2021/01/28 07:17:22;;;;;;;8.27;3.88;;;;;;;2.43;88.11;95006.19;4968828;28;20065;-47
2021/01/28 07:20:00;;;;;;;5.55;4.28;;;;;;;2.83;86.68;95003.66;4957299;28;20508;-49
2021/01/28 07:22:41;;;;;;;8.13;5.13;;;;;;;3.56;83.11;95004.13;4971852;28;20054;-46
2021/01/28 07:25:32;;;;;;;8.45;4.45;;;;;;;3.50;83.16;95000.78;4973461;28;20055;-46
2021/01/28 07:28:05;;;;;;;23.20;11.23;;;;;;;2.93;85.47;94991.91;4973329;28;20579;-46
2021/01/28 07:30:37;;;;;;;11.05;6.68;;;;;;;2.73;86.79;94993.19;4974114;28;20130;-46
2021/01/28 07:33:05;;;;;;;11.15;6.03;;;;;;;2.91;85.88;94984.19;4958155;28;20079;-52
2021/01/28 07:35:47;;;;;;;8.07;5.18;;;;;;;2.75;86.53;94991.78;4956999;28;20322;-47
2021/01/28 07:39:03;;;;;;;6.37;3.87;;;;;;;2.40;88.30;94979.31;4973876;28;20051;-48
2021/01/28 07:41:56;;;;;;;5.25;3.10;;;;;;;2.47;88.63;94964.47;4962262;28;20054;-47
2021/01/28 07:45:29;;;;;;;4.55;2.70;;;;;;;2.50;88.39;94963.84;4974568;28;20043;-47
2021/01/28 07:48:31;;;;;;;7.93;2.80;;;;;;;2.54;88.50;94958.69;4972650;28;20394;-47
2021/01/28 07:51:30;;;;;;;;;;;;;;;2.67;87.95;94960.50;4966472;28;20057;-47
2021/01/28 07:54:25;;;;;;;5.20;2.88;;;;;;;2.81;87.43;94960.41;4974840;28;19922;-46
2021/01/28 07:56:53;;;;;;;6.68;2.85;;;;;;;2.57;88.25;94945.50;4973491;28;20062;-46
2021/01/28 07:59:28;;;;;;;4.90;2.55;;;;;;;2.58;88.35;94941.75;4963530;28;20106;-49
2021/01/28 08:02:02;;;;;;;4.78;2.70;;;;;;;2.52;88.48;94955.53;4965121;28;20069;-51
2021/01/28 08:04:57;;;;;;;6.68;2.50;;;;;;;2.54;88.47;94954.13;4974972;28;20050;-47
2021/01/28 08:07:47;;;;;;;8.07;2.97;;;;;;;2.56;88.34;94935.91;4959971;28;20059;-48
2021/01/28 08:10:24;;;;;;;5.65;3.05;;;;;;;2.70;87.90;94935.84;4955183;28;20066;-47
2021/01/28 08:12:52;;;;;;;5.00;2.90;;;;;;;2.66;88.20;94940.19;4956514;28;20047;-47
2021/01/28 08:15:41;;;;;;;4.03;2.60;;;;;;;2.63;88.05;94935.47;4962138;28;20055;-46
2021/01/28 08:18:43;;;;;;;4.18;2.13;;;;;;;2.72;87.73;94930.19;4954402;28;20085;-46
2021/01/28 08:21:18;;;;;;;5.38;2.20;;;;;;;2.60;88.12;94920.09;4973982;28;20063;-47
2021/01/28 08:23:45;;;;;;;10.63;3.90;;;;;;;2.65;87.90;94911.16;4973918;28;20078;-48
2021/01/28 08:26:32;;;;;;;4.15;2.78;;;;;;;2.58;88.20;94916.94;4964202;28;20051;-50
2021/01/28 08:29:14;;;;;;;5.18;2.50;;;;;;;2.55;88.82;94909.53;4967105;28;20445;-45
2021/01/28 08:31:50;;;;;;;6.85;2.78;;;;;;;2.62;88.08;94901.84;4972908;28;20376;-46
2021/01/28 08:34:24;;;;;;;7.97;3.33;;;;;;;2.56;88.61;94887.84;4963337;28;20076;-46
2021/01/28 08:36:53;;;;;;;3.85;2.50;;;;;;;2.54;88.74;94890.06;4954493;28;20142;-45
2021/01/28 08:39:26;;;;;;;5.88;2.65;;;;;;;2.78;88.30;94883.56;4972011;28;20465;-45
2021/01/28 08:42:05;;;;;;;7.82;2.92;;;;;;;2.67;88.32;94879.59;4971678;28;20588;-47
2021/01/28 08:44:34;;;;;;;6.85;3.40;;;;;;;2.76;88.15;94872.38;4963139;28;20050;-43
2021/01/28 08:47:24;;;;;;;12.20;5.47;;;;;;;2.75;88.28;94876.16;4955973;28;20113;-48
2021/01/28 08:50:19;;;;;;;8.18;4.90;;;;;;;2.77;88.55;94869.41;4969200;28;20568;-44
2021/01/28 08:52:46;;;;;;;9.02;4.97;;;;;;;2.76;88.31;94865.19;4972114;28;20050;-49
2021/01/28 08:55:23;;;;;;;11.45;6.63;;;;;;;2.94;87.50;94868.69;4971569;28;20070;-43
2021/01/28 08:57:51;;;;;;;15.93;9.10;;;;;;;2.73;88.24;94849.78;4972206;28;20177;-43
2021/01/28 09:00:22;;;;;;;11.25;6.60;;;;;;;2.78;88.04;94848.84;4968849;28;20141;-48
2021/01/28 09:02:51;;;;;;;12.38;6.00;;;;;;;2.78;88.09;94843.50;4965111;28;20559;-43
2021/01/28 09:05:24;;;;;;;8.60;5.82;;;;;;;2.64;88.39;94846.28;4970363;28;20039;-48
2021/01/28 09:07:57;;;;;;;5.13;3.38;;;;;;;2.76;88.23;94843.81;4970659;28;20099;-45
2021/01/28 09:10:32;;;;;;;7.07;3.15;;;;;;;2.75;88.24;94842.22;4956669;28;20055;-44
2021/01/28 09:13:17;;;;;;;6.03;2.70;;;;;;;2.89;87.65;94842.09;4958885;28;20055;-46
2021/01/28 09:15:44;;;;;;;5.13;3.03;;;;;;;2.83;88.18;94842.56;4973317;28;20055;-48
2021/01/28 09:18:28;;;;;;;6.25;3.00;;;;;;;2.93;87.93;94837.72;4971557;28;20146;-46
2021/01/28 09:21:12;;;;;;;4.10;2.80;;;;;;;2.83;87.95;94838.03;4971521;28;20508;-46
2021/01/28 09:24:01;;;;;;;4.90;3.10;;;;;;;2.94;87.91;94833.16;4953537;28;20704;-46
2021/01/28 09:26:38;;;;;;;5.40;2.75;;;;;;;2.91;87.92;94829.22;4959086;28;20058;-45
2021/01/28 09:29:22;;;;;;;7.50;3.58;;;;;;;3.00;87.43;94826.59;4972431;28;20063;-46
2021/01/28 09:32:11;;;;;;;8.50;4.53;;;;;;;3.01;87.82;94830.81;4958028;28;20126;-48
2021/01/28 09:34:39;;;;;;;9.32;5.38;;;;;;;3.09;87.66;94834.59;4964121;28;20058;-48
2021/01/28 09:37:14;;;;;;;4.90;2.75;;;;;;;3.10;87.79;94830.84;4953421;28;20151;-47
2021/01/28 09:39:45;;;;;;;2.80;1.60;;;;;;;3.12;87.94;94834.00;4965363;28;20058;-48
2021/01/28 09:42:29;;;;;;;4.25;1.13;;;;;;;3.04;88.45;94827.53;4972695;28;20098;-47
2021/01/28 09:45:16;;;;;;;2.50;1.45;;;;;;;3.07;88.09;94812.78;4971554;28;20085;-46
2021/01/28 09:47:53;;;;;;;2.90;1.05;;;;;;;3.10;88.22;94820.16;4971803;28;20428;-45
2021/01/28 09:50:20;;;;;;;1.40;0.90;;;;;;;3.05;88.54;94802.38;4961826;28;20059;-46
2021/01/28 09:52:49;;;;;;;2.85;0.95;;;;;;;3.02;89.11;94797.66;4964480;28;20408;-45
2021/01/28 09:55:22;;;;;;;2.47;1.00;;;;;;;3.01;89.18;94801.44;4972812;28;20062;-47
2021/01/28 09:57:50;;;;;;;1.42;0.80;;;;;;;3.03;88.90;94794.69;4967279;28;20053;-44
2021/01/28 10:00:20;;;;;;;2.17;1.40;;;;;;;3.02;89.17;94786.97;4959002;28;20086;-45
2021/01/28 10:03:01;;;;;;;3.55;0.93;;;;;;;2.99;89.10;94764.34;4972088;28;20424;-47
2021/01/28 10:05:31;;;;;;;1.95;0.80;;;;;;;2.99;89.43;94771.56;4970974;28;20142;-45
2021/01/28 10:07:58;;;;;;;2.83;1.00;;;;;;;3.01;89.42;94762.13;4972476;28;20050;-44
2021/01/28 10:10:28;;;;;;;1.38;0.68;;;;;;;2.95;89.71;94747.34;4969102;28;20457;-46
2021/01/28 10:12:56;;;;;;;1.77;0.93;;;;;;;3.04;89.60;94753.50;4964063;28;20118;-49
2021/01/28 10:15:24;;;;;;;3.10;1.38;;;;;;;2.98;89.91;94738.72;4955795;28;20051;-50
2021/01/28 10:17:52;;;;;;;4.97;2.83;;;;;;;3.07;89.36;94730.72;4966899;28;20054;-48
2021/01/28 10:20:19;;;;;;;5.40;3.50;;;;;;;3.05;89.87;94722.22;4970270;28;20043;-47
2021/01/28 10:22:46;;;;;;;7.65;2.65;;;;;;;3.03;89.41;94708.41;4971432;28;20062;-46
2021/01/28 10:25:16;;;;;;;4.90;1.52;;;;;;;3.14;89.09;94706.19;4970675;28;20046;-46
2021/01/28 10:27:43;;;;;;;1.15;0.88;;;;;;;3.12;88.91;94703.03;4966759;28;20055;-46
2021/01/28 10:30:15;;;;;;;5.35;1.73;;;;;;;3.11;89.52;94699.59;4963296;28;20058;-48
2021/01/28 10:32:44;;;;;;;2.78;1.20;;;;;;;3.07;89.13;94676.47;4964553;28;20043;-44
2021/01/28 10:35:13;;;;;;;3.05;1.27;;;;;;;3.03;89.86;94679.78;4970882;28;20051;-45
2021/01/28 10:37:39;;;;;;;2.78;0.90;;;;;;;3.06;89.44;94658.88;4960146;28;20047;-45
2021/01/28 10:40:06;;;;;;;3.08;1.20;;;;;;;3.14;89.47;94671.44;4970687;28;20103;-49
2021/01/28 10:42:42;;;;;;;1.70;1.00;;;;;;;3.18;89.32;94659.78;4969664;28;20050;-45
2021/01/28 10:45:21;;;;;;;5.03;1.52;;;;;;;3.12;89.74;94669.09;4961287;28;20501;-47
2021/01/28 10:47:48;;;;;;;4.18;2.47;;;;;;;3.08;89.80;94662.00;4954960;28;20057;-44
2021/01/28 10:50:27;;;;;;;4.03;1.20;;;;;;;3.18;89.73;94661.69;4966112;28;20101;-46
2021/01/28 10:52:54;;;;;;;4.72;2.00;;;;;;;3.20;89.69;94664.84;4970424;28;20098;-45
2021/01/28 10:55:22;;;;;;;2.83;1.20;;;;;;;3.16;90.07;94650.53;4958389;28;20143;-48
2021/01/28 10:57:50;;;;;;;3.75;1.50;;;;;;;3.18;90.40;94643.75;4957220;28;20128;-48
2021/01/28 11:00:17;;;;;;;1.65;0.90;;;;;;;3.17;90.41;94633.41;4969653;28;20149;-46
2021/01/28 11:02:44;;;;;;;2.15;1.25;;;;;;;3.24;90.23;94636.38;4971151;28;20044;-45
2021/01/28 11:05:24;;;;;;;3.33;1.40;;;;;;;3.23;89.84;94638.25;4971114;28;20409;-47
2021/01/28 11:07:52;;;;;;;3.22;1.20;;;;;;;3.24;89.96;94639.81;4967498;28;20055;-43
2021/01/28 11:10:37;;;;;;;;;;;;;;;3.28;89.76;94642.66;4972032;28;20501;-47
2021/01/28 11:13:04;;;;;;;2.17;1.15;;;;;;;3.20;89.99;94622.06;4965180;28;19922;-44
2021/01/28 11:15:33;;;;;;;2.70;1.30;;;;;;;3.26;90.27;94626.94;4960901;28;20066;-44
2021/01/28 11:18:00;;;;;;;3.88;1.15;;;;;;;3.27;90.24;94611.69;4957441;28;20051;-46
2021/01/28 11:20:31;;;;;;;2.25;1.25;;;;;;;3.36;89.39;94604.44;4970648;28;20047;-45
2021/01/28 11:23:16;;;;;;;1.67;0.88;;;;;;;3.25;89.69;94581.78;4973588;28;20521;-44
2021/01/28 11:25:42;;;;;;;1.40;0.80;;;;;;;3.24;90.42;94602.41;4975566;28;20046;-43
2021/01/28 11:28:09;;;;;;;3.35;0.80;;;;;;;3.29;90.29;94582.75;4974448;28;20055;-46
2021/01/28 11:30:35;;;;;;;1.73;1.00;;;;;;;3.24;90.64;94582.91;4956527;28;20166;-48
2021/01/28 11:33:04;;;;;;;2.80;1.10;;;;;;;3.32;90.33;94576.00;4964769;28;20125;-44
2021/01/28 11:35:33;;;;;;;4.13;2.08;;;;;;;3.28;90.54;94565.94;4964007;28;20057;-44
2021/01/28 11:38:00;;;;;;;4.53;2.33;;;;;;;3.25;90.69;94563.91;4966428;28;20054;-44
2021/01/28 11:40:31;;;;;;;6.47;2.38;;;;;;;3.33;90.84;94562.28;4973739;28;20121;-45
2021/01/28 11:43:00;;;;;;;2.47;1.00;;;;;;;3.28;90.97;94557.09;4955761;28;20098;-44
2021/01/28 11:45:32;;;;;;;2.55;1.40;;;;;;;3.34;90.66;94541.69;4960082;28;20101;-45
2021/01/28 11:47:59;;;;;;;3.90;2.20;;;;;;;3.34;91.02;94537.13;4973298;28;20059;-47
2021/01/28 11:50:32;;;;;;;3.00;1.50;;;;;;;3.35;90.95;94530.69;4967560;28;20495;-48
2021/01/28 11:52:59;;;;;;;1.95;1.00;;;;;;;3.46;90.38;94529.22;4966274;28;20054;-44
2021/01/28 11:55:28;;;;;;;2.90;1.20;;;;;;;3.51;90.68;94525.59;4968588;28;20150;-46
2021/01/28 11:57:57;;;;;;;4.95;2.03;;;;;;;3.54;90.68;94527.59;4970386;28;20138;-47
2021/01/28 12:00:25;;;;;;;2.55;1.10;;;;;;;3.59;90.63;94522.09;4973503;28;20536;-47
2021/01/28 12:02:51;;;;;;;1.77;0.90;;;;;;;3.68;90.02;94522.84;4973409;28;20126;-46
2021/01/28 12:05:23;;;;;;;3.30;1.13;;;;;;;3.56;91.06;94501.34;4974662;28;20425;-48
2021/01/28 12:07:51;;;;;;;1.50;0.80;;;;;;;3.67;90.72;94507.91;4962934;28;20069;-46
2021/01/28 12:10:19;;;;;;;3.35;1.33;;;;;;;3.63;90.91;94495.47;4974028;28;20421;-45
2021/01/28 12:12:47;;;;;;;3.90;1.25;;;;;;;3.64;91.18;94487.16;4970763;28;20039;-45
2021/01/28 12:15:18;;;;;;;3.08;1.10;;;;;;;3.79;90.72;94487.69;4956328;28;20054;-48
2021/01/28 12:17:46;;;;;;;1.20;0.90;;;;;;;3.84;90.83;94485.59;4958908;28;20058;-46
2021/01/28 12:20:17;;;;;;;1.65;1.00;;;;;;;3.86;90.73;94475.34;4964434;28;20537;-46
2021/01/28 12:22:44;;;;;;;2.30;1.10;;;;;;;3.93;90.96;94483.66;4971050;28;20152;-47
2021/01/28 12:25:11;;;;;;;3.25;1.45;;;;;;;3.99;90.90;94458.25;4961683;28;20054;-48
2021/01/28 12:27:38;;;;;;;3.03;1.10;;;;;;;4.04;90.97;94459.97;4962961;28;20051;-48
2021/01/28 12:30:07;;;;;;;3.60;1.65;;;;;;;4.13;90.90;94451.88;4971707;28;20133;-50
2021/01/28 12:32:33;;;;;;;2.47;1.05;;;;;;;4.27;90.58;94449.72;4968173;28;20443;-49